»·PEaware :: AAL316 KLAX-KSFO

AAL316 :: KLAX-KSFO

FLIGHT INFORMATION

Flight Status: Arrived
Operator:
American Airlines
More flights by this operator :: More flights under this callsign
Pilot: Bryce B. (22361)
Aircraft: AIRBUS A319
(A319)
More flights by this aircraft type
Origin: KLAX Los Angeles Intl
United States
Destination: KSFO San Francisco Intl
United States
More flights between these airports :: More routes between these airports
Route: +LAX RZS SERFR SERFR3
File this flight plan on PilotEdge
Remarks: NO SID
Altitude:
(Current/Filed)
28,000ft
Speed:
(Current/Filed)
556kts
Departed: 01-Dec-18 02:30 PM
Arrived: 01-Dec-18 03:27 PM
Distance/Time
Traveled:
0nm/0:57
Distance/Time
To Go:
Arrived

Flight Plot

Page will automatically refresh every two minutes.

Flight plan parsing failed; only flown route is shown


Map Options




Map Legend


Flown Route
Filed Route
Departure Airport
Arrival Airport
Navaid (VOR, NDB)
Fix

Horizontal Profiles

Position Reports

Time Latitude Longitude Heading Altitude Ground
Speed
01-Dec-18 13:47 33.947888 -118.401374 163 140ft 0kts
01-Dec-18 13:48 33.947888 -118.401374 163 140ft 0kts
01-Dec-18 13:49 33.947888 -118.401374 163 140ft 0kts
01-Dec-18 13:50 33.947888 -118.401374 163 140ft 0kts
01-Dec-18 13:51 33.947888 -118.401374 163 140ft 0kts
01-Dec-18 13:52 33.947888 -118.401374 163 140ft 0kts
01-Dec-18 13:53 33.947888 -118.401374 163 140ft 0kts
01-Dec-18 13:54 33.947888 -118.401374 163 140ft 0kts
01-Dec-18 13:55 33.947888 -118.401374 163 140ft 0kts
01-Dec-18 13:56 33.947888 -118.401374 163 140ft 0kts
01-Dec-18 13:57 33.947888 -118.401374 163 140ft 0kts
01-Dec-18 13:58 33.947888 -118.401374 163 140ft 0kts
01-Dec-18 13:59 33.947888 -118.401374 163 140ft 0kts
01-Dec-18 14:00 33.947888 -118.401374 163 140ft 0kts
01-Dec-18 14:01 33.947888 -118.401374 163 140ft 0kts
01-Dec-18 14:02 33.947888 -118.401374 163 140ft 0kts
01-Dec-18 14:03 33.947888 -118.401374 163 140ft 0kts
01-Dec-18 14:04 33.947888 -118.401374 163 140ft 0kts
01-Dec-18 14:05 33.947888 -118.401374 163 140ft 0kts
01-Dec-18 14:06 33.947888 -118.401374 163 140ft 0kts
01-Dec-18 14:07 33.947888 -118.401374 163 140ft 0kts
01-Dec-18 14:08 33.947888 -118.401374 163 140ft 0kts
01-Dec-18 14:09 33.947888 -118.401374 163 140ft 0kts
01-Dec-18 14:10 33.947888 -118.401374 163 140ft 0kts
01-Dec-18 14:11 33.947888 -118.401374 163 140ft 0kts
01-Dec-18 14:12 33.947888 -118.401374 163 140ft 0kts
01-Dec-18 14:13 33.947888 -118.401374 163 140ft 0kts
01-Dec-18 14:14 33.947888 -118.401374 163 140ft 0kts
01-Dec-18 14:15 33.947888 -118.401374 163 140ft 0kts
01-Dec-18 14:16 33.947905 -118.401380 163 140ft 1kts
01-Dec-18 14:17 33.948315 -118.401397 195 140ft 0kts
01-Dec-18 14:18 33.948314 -118.401398 195 140ft 0kts
01-Dec-18 14:19 33.948312 -118.401398 195 140ft 0kts
01-Dec-18 14:20 33.948310 -118.401399 195 140ft 0kts
01-Dec-18 14:21 33.948309 -118.401399 195 140ft 0kts
01-Dec-18 14:22 33.948307 -118.401400 195 140ft 0kts
01-Dec-18 14:23 33.948306 -118.401400 195 140ft 0kts
01-Dec-18 14:24 33.948304 -118.401401 195 140ft 0kts
01-Dec-18 14:25 33.948302 -118.401401 195 140ft 0kts
01-Dec-18 14:26 33.948301 -118.401402 195 140ft 0kts
01-Dec-18 14:27 33.948300 -118.401402 195 140ft 0kts
01-Dec-18 14:28 33.948299 -118.401403 195 140ft 0kts
01-Dec-18 14:29 33.948297 -118.401403 195 140ft 0kts
01-Dec-18 14:30 33.948295 -118.401404 195 140ft 0kts
01-Dec-18 14:31 33.949216 -118.401586 302 140ft 10kts
01-Dec-18 14:32 33.949506 -118.401777 353 140ft 4kts
01-Dec-18 14:33 33.948022 -118.423284 262 188ft 164kts
01-Dec-18 14:34 33.941666 -118.493343 262 1648ft 245kts
01-Dec-18 14:35 33.933621 -118.575632 263 2994ft 247kts
01-Dec-18 14:36 33.923841 -118.657803 262 3001ft 247kts
01-Dec-18 14:37 33.913778 -118.741151 263 5281ft 256kts
01-Dec-18 14:38 33.902641 -118.828022 263 8215ft 268kts
01-Dec-18 14:39 33.889433 -118.919524 263 10368ft 302kts
01-Dec-18 14:40 33.879939 -119.032120 288 11530ft 360kts
01-Dec-18 14:41 33.935097 -119.105943 320 13786ft 364kts
01-Dec-18 14:42 34.026588 -119.200071 320 16634ft 376kts
01-Dec-18 14:43 34.093048 -119.269077 320 18354ft 384kts
01-Dec-18 14:44 34.189237 -119.369231 321 20393ft 397kts
01-Dec-18 14:45 34.259732 -119.442553 322 21610ft 407kts
01-Dec-18 14:46 34.364033 -119.553939 320 22768ft 433kts
01-Dec-18 14:47 34.439657 -119.631143 319 24505ft 422kts
01-Dec-18 14:48 34.544070 -119.738730 318 26035ft 424kts
01-Dec-18 14:49 34.619079 -119.817069 317 26910ft 429kts
01-Dec-18 14:50 34.725064 -119.927936 317 28181ft 430kts
01-Dec-18 14:51 34.800309 -120.006382 317 28292ft 426kts
01-Dec-18 14:52 34.890134 -120.100397 317 28307ft 426kts
01-Dec-18 14:53 34.979723 -120.194616 317 28304ft 425kts
01-Dec-18 14:54 35.069226 -120.289016 317 28309ft 425kts
01-Dec-18 14:55 35.158931 -120.383948 317 28311ft 425kts
01-Dec-18 14:56 35.248175 -120.478642 317 28302ft 425kts
01-Dec-18 14:57 35.337588 -120.573828 317 28300ft 425kts
01-Dec-18 14:58 35.426671 -120.668949 316 28301ft 425kts
01-Dec-18 14:59 35.515650 -120.764263 316 28287ft 426kts
01-Dec-18 15:00 35.605290 -120.860645 316 28267ft 426kts
01-Dec-18 15:01 35.694338 -120.956575 316 28215ft 431kts
01-Dec-18 15:02 35.784325 -121.053908 316 28136ft 410kts
01-Dec-18 15:03 35.876122 -121.133295 304 28151ft 401kts
01-Dec-18 15:04 35.953114 -121.237644 317 28143ft 429kts
01-Dec-18 15:05 36.045910 -121.338330 316 28105ft 452kts
01-Dec-18 15:06 36.141360 -121.421778 324 27182ft 390kts
01-Dec-18 15:07 36.226436 -121.487771 323 25664ft 349kts
01-Dec-18 15:08 36.308808 -121.552662 326 22915ft 344kts
01-Dec-18 15:09 36.388519 -121.614872 325 20521ft 331kts
01-Dec-18 15:10 36.457787 -121.669288 325 20312ft 255kts
01-Dec-18 15:11 36.509900 -121.710449 324 19586ft 172kts
01-Dec-18 15:12 36.559836 -121.750264 326 16694ft 278kts
01-Dec-18 15:13 36.636491 -121.810800 326 16765ft 370kts
01-Dec-18 15:14 36.716575 -121.874155 327 15766ft 319kts
01-Dec-18 15:15 36.798639 -121.909773 344 14720ft 311kts
01-Dec-18 15:16 36.882325 -121.933403 344 12472ft 304kts
01-Dec-18 15:17 36.963516 -121.957526 342 10240ft 294kts
01-Dec-18 15:18 37.036553 -121.986048 342 8879ft 253kts
01-Dec-18 15:19 37.101984 -122.011574 342 6824ft 241kts
01-Dec-18 15:20 37.166249 -122.036730 341 5981ft 244kts
01-Dec-18 15:21 37.231208 -122.062204 341 5977ft 244kts
01-Dec-18 15:22 37.295967 -122.087652 341 5979ft 243kts
01-Dec-18 15:23 37.360204 -122.112922 341 5129ft 237kts
01-Dec-18 15:24 37.421899 -122.137172 341 4126ft 224kts
01-Dec-18 15:25 37.481313 -122.160457 341 3638ft 211kts
01-Dec-18 15:26 37.531493 -122.185272 318 3092ft 189kts
01-Dec-18 15:27 37.561742 -122.239937 301 2115ft 197kts
01-Dec-18 15:28 37.579984 -122.282780 299 1377ft 168kts
01-Dec-18 15:29 37.600157 -122.330825 298 549ft 150kts
01-Dec-18 15:30 37.616929 -122.370767 296 27ft 35kts
01-Dec-18 15:31 37.618986 -122.378272 267 27ft 6kts
01-Dec-18 15:32 37.619581 -122.381976 297 27ft 22kts
01-Dec-18 15:33 37.619052 -122.385785 182 27ft 10kts
01-Dec-18 15:34 33.947914 -118.401383 163 126ft 0kts
01-Dec-18 15:35 33.947914 -118.401383 163 126ft 0kts

Navigation Log

Ident Type
Flight plan parsing failed, navigation log unavailable